Time;durP1;ratioP1;P1;durP2;ratioP2;P2;SDS_P1;SDS_P2;PMS_P1;PMS_P2;Temp;Humidity;BMP_temperature;BMP_pressure;BME280_temperature;BME280_humidity;BME280_pressure;Samples;Min_cycle;Max_cycle;Signal;HPM_P1;HPM_P2
2023/01/22 00:01:11;;;;;;;26.77;16.98;;;22.40;38.10;;;;;;6126240;28;83380;-53
2023/01/22 00:04:11;;;;;;;27.70;18.08;;;22.40;38.20;;;;;;6125886;28;83406;-52
2023/01/22 00:07:14;;;;;;;28.77;17.67;;;22.40;38.20;;;;;;6116128;28;83645;-53
2023/01/22 00:10:14;;;;;;;25.92;17.02;;;22.40;38.20;;;;;;6115175;28;84152;-59
2023/01/22 00:13:15;;;;;;;26.95;17.00;;;22.40;38.30;;;;;;6115302;28;83178;-58
2023/01/22 00:16:15;;;;;;;25.70;16.33;;;22.40;38.30;;;;;;6110968;28;83559;-60
2023/01/22 00:19:16;;;;;;;26.20;17.42;;;22.40;38.20;;;;;;6145450;28;83824;-61
2023/01/22 00:22:16;;;;;;;28.15;17.02;;;22.30;38.10;;;;;;6136850;28;83009;-60
2023/01/22 00:25:17;;;;;;;26.38;17.48;;;22.30;38.10;;;;;;6133684;28;83613;-61
2023/01/22 00:28:18;;;;;;;27.38;17.25;;;22.30;38.10;;;;;;6124315;28;83924;-61
2023/01/22 00:31:18;;;;;;;25.67;17.20;;;22.30;38.10;;;;;;6130221;28;85556;-61
2023/01/22 00:34:19;;;;;;;25.60;16.63;;;22.30;38.10;;;;;;6124770;28;83049;-61
2023/01/22 00:37:19;;;;;;;26.45;17.15;;;22.30;38.10;;;;;;6125312;28;84294;-61
2023/01/22 00:40:20;;;;;;;23.08;16.17;;;22.30;38.10;;;;;;6138364;28;83813;-61
2023/01/22 00:43:20;;;;;;;25.80;16.50;;;22.30;38.10;;;;;;6129965;28;84462;-61
2023/01/22 00:46:21;;;;;;;24.83;15.75;;;22.30;38.10;;;;;;6117323;28;85537;-61
2023/01/22 00:49:21;;;;;;;24.13;15.68;;;22.30;38.10;;;;;;6124956;28;83488;-62
2023/01/22 00:52:22;;;;;;;23.23;15.35;;;22.30;38.10;;;;;;6139284;28;83789;-61
2023/01/22 00:55:22;;;;;;;25.08;16.75;;;22.30;38.00;;;;;;6135116;28;83263;-60
2023/01/22 00:58:23;;;;;;;22.92;15.52;;;22.30;38.10;;;;;;6123963;28;86181;-60
2023/01/22 01:01:24;;;;;;;23.17;14.75;;;22.30;38.10;;;;;;6129540;28;86007;-61
2023/01/22 01:04:25;;;;;;;22.45;15.18;;;22.20;38.10;;;;;;6145040;28;83788;-60
2023/01/22 01:07:25;;;;;;;21.23;14.38;;;22.20;38.20;;;;;;6121259;28;83072;-60
2023/01/22 01:10:26;;;;;;;22.15;15.00;;;22.20;38.10;;;;;;6129824;28;84215;-61
2023/01/22 01:13:26;;;;;;;25.30;15.32;;;22.20;38.20;;;;;;6124951;28;82970;-61
2023/01/22 01:16:28;;;;;;;22.55;14.63;;;22.20;38.20;;;;;;6124151;28;82963;-60
2023/01/22 01:19:29;;;;;;;20.70;13.90;;;22.20;38.30;;;;;;6120767;28;84515;-60
2023/01/22 01:22:29;;;;;;;22.55;14.23;;;22.20;38.20;;;;;;6135597;28;86321;-60
2023/01/22 01:25:30;;;;;;;20.63;14.32;;;22.20;38.20;;;;;;6138315;28;85440;-61
2023/01/22 01:28:32;;;;;;;19.75;12.98;;;22.20;38.30;;;;;;6131614;28;85796;-60
2023/01/22 01:31:32;;;;;;;19.35;13.52;;;22.20;38.40;;;;;;6125489;28;83324;-59
2023/01/22 01:34:33;;;;;;;18.50;12.88;;;22.20;38.40;;;;;;6133334;28;83806;-58
2023/01/22 01:37:33;;;;;;;18.55;12.35;;;22.20;38.50;;;;;;6126552;28;83507;-59
2023/01/22 01:40:34;;;;;;;19.17;12.27;;;22.30;38.60;;;;;;6130371;28;83124;-60
2023/01/22 01:43:35;;;;;;;18.77;12.32;;;22.30;38.60;;;;;;6122727;28;83549;-60
2023/01/22 01:46:35;;;;;;;18.85;12.38;;;22.30;38.60;;;;;;6123007;28;83724;-59
2023/01/22 01:49:36;;;;;;;19.67;12.05;;;22.20;38.50;;;;;;6134932;28;84589;-59
2023/01/22 01:52:36;;;;;;;17.73;11.98;;;22.20;38.50;;;;;;6138683;28;84551;-59
2023/01/22 01:55:37;;;;;;;15.93;10.93;;;22.30;38.60;;;;;;6119658;28;84367;-59
2023/01/22 01:58:37;;;;;;;14.77;10.57;;;22.30;38.40;;;;;;6103297;28;84580;-59
2023/01/22 02:01:38;;;;;;;18.15;12.13;;;22.20;38.30;;;;;;6129011;28;84387;-60
2023/01/22 02:04:39;;;;;;;16.52;11.15;;;22.30;39.00;;;;;;6114783;28;82768;-61
2023/01/22 02:07:39;;;;;;;15.40;11.30;;;22.30;38.30;;;;;;6101714;28;83717;-61
2023/01/22 02:10:40;;;;;;;16.38;10.27;;;22.30;38.30;;;;;;6106174;28;88768;-59
2023/01/22 02:13:40;;;;;;;15.77;10.30;;;22.30;38.40;;;;;;6104845;28;84803;-59
2023/01/22 02:16:41;;;;;;;14.73;10.57;;;22.20;38.40;;;;;;6132817;28;84576;-60
2023/01/22 02:19:42;;;;;;;17.25;11.30;;;22.20;38.40;;;;;;6124558;28;84542;-59
2023/01/22 02:22:43;;;;;;;17.38;12.13;;;22.20;38.40;;;;;;6123019;28;85128;-61
2023/01/22 02:25:43;;;;;;;18.70;11.93;;;22.20;38.20;;;;;;6121639;28;85811;-61
2023/01/22 02:28:46;;;;;;;16.27;11.23;;;22.20;38.40;;;;;;6123760;28;84885;-60
2023/01/22 02:31:47;;;;;;;15.48;11.35;;;22.20;38.30;;;;;;6122175;28;85366;-59
2023/01/22 02:34:47;;;;;;;15.60;10.98;;;22.20;38.40;;;;;;6130067;28;86038;-60
2023/01/22 02:37:48;;;;;;;16.27;11.18;;;22.20;38.30;;;;;;6119882;28;83460;-59
2023/01/22 02:40:49;;;;;;;16.80;11.70;;;22.20;38.20;;;;;;6128018;28;83134;-60
2023/01/22 02:43:52;;;;;;;15.02;10.80;;;22.20;38.80;;;;;;6111891;28;85944;-60
2023/01/22 02:46:54;;;;;;;16.02;10.40;;;22.20;38.20;;;;;;6102250;28;86300;-61
2023/01/22 02:49:55;;;;;;;13.95;10.07;;;22.20;38.20;;;;;;6104449;28;85109;-58
2023/01/22 02:52:56;;;;;;;15.85;10.65;;;22.20;38.20;;;;;;6123918;28;83000;-58
2023/01/22 02:55:56;;;;;;;15.88;10.88;;;22.20;38.20;;;;;;6122505;28;85732;-60
2023/01/22 02:58:57;;;;;;;14.25;9.88;;;22.20;38.30;;;;;;6110323;28;83633;-60
2023/01/22 03:01:57;;;;;;;15.30;10.02;;;22.20;38.20;;;;;;6126274;28;86301;-59
2023/01/22 03:05:03;;;;;;;14.05;10.13;;;22.10;38.20;;;;;;6122788;28;83909;-60
2023/01/22 03:08:04;;;;;;;14.02;10.13;;;22.10;38.20;;;;;;6114061;28;83286;-61
2023/01/22 03:11:04;;;;;;;15.15;9.95;;;22.10;38.20;;;;;;6114578;28;85870;-60
2023/01/22 03:24:04;;;;;;;15.38;8.93;;;22.10;38.20;;;;;;6144827;28;84401;-60
2023/01/22 03:27:05;;;;;;;13.10;9.35;;;22.10;38.00;;;;;;6122230;28;83137;-60
2023/01/22 03:30:06;;;;;;;13.93;9.00;;;22.10;38.00;;;;;;6138214;28;83020;-60
2023/01/22 03:33:09;;;;;;;14.93;9.30;;;22.10;38.00;;;;;;6131292;28;83614;-60
2023/01/22 03:36:09;;;;;;;14.60;9.55;;;22.10;37.90;;;;;;6142473;28;87053;-61
2023/01/22 03:39:12;;;;;;;14.30;9.30;;;22.10;37.90;;;;;;6145653;28;83459;-60
2023/01/22 03:42:14;;;;;;;11.55;8.07;;;22.10;37.80;;;;;;6137007;28;83214;-61
2023/01/22 03:45:14;;;;;;;14.02;8.88;;;22.10;37.80;;;;;;6156021;28;81974;-61
2023/01/22 03:48:15;;;;;;;11.63;8.18;;;22.10;37.70;;;;;;6155220;28;82871;-59
2023/01/22 03:51:15;;;;;;;14.02;8.90;;;22.10;37.70;;;;;;6152530;28;83191;-60
2023/01/22 03:54:16;;;;;;;11.05;7.55;;;22.10;37.80;;;;;;6128180;28;83060;-60
2023/01/22 03:57:17;;;;;;;11.23;7.65;;;22.10;37.80;;;;;;6129198;28;80380;-61
2023/01/22 04:00:17;;;;;;;11.50;8.27;;;22.10;37.80;;;;;;6139654;28;83081;-62
2023/01/22 04:03:18;;;;;;;10.50;6.85;;;22.10;37.70;;;;;;6152072;28;81912;-60
2023/01/22 04:06:19;;;;;;;12.43;8.10;;;22.10;37.70;;;;;;6142862;28;82420;-59
2023/01/22 04:09:20;;;;;;;12.02;7.70;;;22.10;37.70;;;;;;6154376;28;81936;-60
2023/01/22 04:12:22;;;;;;;10.68;7.65;;;22.10;37.70;;;;;;6123828;28;82814;-60
2023/01/22 04:15:22;;;;;;;11.00;7.78;;;22.10;37.70;;;;;;6137544;28;86324;-61
2023/01/22 04:18:24;;;;;;;11.55;8.05;;;22.10;37.80;;;;;;6108951;28;83545;-61
2023/01/22 04:22:00;;;;;;;10.60;7.95;;;22.10;37.80;;;;;;6095693;28;80479;-60
2023/01/22 04:25:01;;;;;;;10.43;7.30;;;22.20;37.60;;;;;;6154175;28;83686;-60
2023/01/22 04:28:02;;;;;;;13.10;7.88;;;22.30;37.60;;;;;;6106311;28;81114;-60
2023/01/22 04:31:03;;;;;;;10.55;7.50;;;22.30;37.40;;;;;;6127090;28;83338;-61
2023/01/22 04:34:22;;;;;;;10.95;6.78;;;22.30;37.30;;;;;;6118140;28;80231;-60
2023/01/22 04:37:32;;;;;;;9.60;6.18;;;22.40;37.20;;;;;;6119398;28;82623;-60
2023/01/22 04:40:33;;;;;;;10.02;6.60;;;22.50;37.20;;;;;;6142591;28;83563;-60
2023/01/22 04:43:34;;;;;;;9.60;6.05;;;22.50;37.20;;;;;;6127164;28;82925;-61
2023/01/22 04:46:36;;;;;;;9.15;6.78;;;22.50;37.10;;;;;;6126552;28;82673;-57
2023/01/22 04:49:37;;;;;;;11.20;6.90;;;22.60;37.20;;;;;;6106260;28;82262;-58
2023/01/22 04:52:39;;;;;;;10.13;6.55;;;22.60;37.10;;;;;;6120254;28;82426;-60
2023/01/22 04:55:41;;;;;;;10.13;6.70;;;22.60;37.00;;;;;;6116869;28;86958;-59
2023/01/22 04:58:42;;;;;;;8.82;6.28;;;22.60;36.90;;;;;;6123750;28;83555;-59
2023/01/22 05:01:43;;;;;;;8.60;5.95;;;22.70;37.10;;;;;;6119828;28;83169;-58
2023/01/22 05:04:44;;;;;;;6.88;5.65;;;22.70;37.00;;;;;;6126366;28;82955;-59
2023/01/22 05:07:45;;;;;;;7.40;5.80;;;22.70;37.00;;;;;;6130752;28;83867;-59
2023/01/22 05:10:45;;;;;;;8.40;5.93;;;22.70;36.90;;;;;;6123469;28;80689;-59
2023/01/22 05:13:53;;;;;;;8.90;6.20;;;22.80;36.90;;;;;;6137681;28;83394;-59
2023/01/22 05:16:54;;;;;;;9.30;6.32;;;22.80;37.00;;;;;;6127715;28;82077;-59
2023/01/22 05:19:54;;;;;;;9.80;6.38;;;22.80;37.00;;;;;;6127769;28;87505;-59
2023/01/22 05:22:55;;;;;;;9.35;6.32;;;22.80;36.90;;;;;;6120282;28;82614;-55
2023/01/22 05:25:58;;;;;;;8.60;6.00;;;22.80;36.80;;;;;;6127098;28;82343;-58
2023/01/22 05:29:15;;;;;;;8.95;6.22;;;22.80;36.70;;;;;;6127370;28;83468;-53
2023/01/22 05:32:35;;;;;;;9.27;5.85;;;22.80;36.60;;;;;;6127378;28;83245;-56
2023/01/22 05:35:37;;;;;;;9.93;5.97;;;22.80;36.50;;;;;;6138948;28;82377;-56
2023/01/22 05:38:38;;;;;;;8.90;6.60;;;22.80;36.50;;;;;;6132816;28;83376;-57
2023/01/22 05:41:39;;;;;;;9.98;6.63;;;22.80;36.50;;;;;;6148311;28;83194;-55
2023/01/22 05:44:40;;;;;;;9.65;6.30;;;22.80;36.60;;;;;;6140209;28;82391;-56
2023/01/22 05:47:40;;;;;;;7.70;5.95;;;22.90;36.60;;;;;;6127444;28;80924;-56
2023/01/22 05:50:47;;;;;;;8.98;6.05;;;22.90;36.60;;;;;;6127062;28;80585;-58
2023/01/22 05:53:47;;;;;;;10.95;6.53;;;22.90;36.60;;;;;;6128713;28;81015;-58
2023/01/22 05:56:49;;;;;;;9.40;6.20;;;22.90;36.60;;;;;;6139674;28;82492;-53
2023/01/22 05:59:49;;;;;;;10.38;6.50;;;22.80;36.60;;;;;;6141143;28;80457;-55
2023/01/22 06:02:50;;;;;;;9.93;6.35;;;22.90;36.50;;;;;;6140674;28;80473;-58
2023/01/22 06:05:51;;;;;;;9.13;6.63;;;22.90;36.70;;;;;;6128197;28;80906;-56
2023/01/22 06:08:51;;;;;;;8.35;6.45;;;22.90;36.70;;;;;;6121688;28;82903;-55
2023/01/22 06:11:54;;;;;;;7.90;5.63;;;22.80;36.60;;;;;;6148182;28;81519;-57
2023/01/22 06:14:55;;;;;;;8.50;5.75;;;22.80;36.80;;;;;;6139449;28;81394;-54
2023/01/22 06:17:55;;;;;;;11.07;6.63;;;22.80;36.60;;;;;;6114897;28;80424;-50
2023/01/22 06:20:56;;;;;;;9.05;6.40;;;22.70;36.70;;;;;;6133034;28;83104;-53
2023/01/22 06:23:56;;;;;;;8.15;6.00;;;22.70;36.80;;;;;;6120086;28;81370;-53
2023/01/22 06:26:58;;;;;;;8.25;6.22;;;22.70;36.90;;;;;;6125886;28;81496;-51
2023/01/22 06:30:08;;;;;;;10.43;6.60;;;22.70;36.90;;;;;;6126115;28;82566;-54
2023/01/22 06:33:08;;;;;;;9.40;6.47;;;22.70;36.80;;;;;;6125757;28;83616;-52
2023/01/22 06:36:09;;;;;;;8.23;6.70;;;22.70;36.90;;;;;;6126674;28;83459;-51
2023/01/22 06:39:10;;;;;;;9.82;6.47;;;22.60;36.80;;;;;;6139144;28;83073;-53
2023/01/22 06:42:18;;;;;;;8.23;5.97;;;22.60;36.80;;;;;;6125498;28;82960;-53
2023/01/22 06:45:19;;;;;;;9.70;7.38;;;22.60;36.90;;;;;;6132829;28;82796;-53
2023/01/22 06:48:25;;;;;;;9.57;6.47;;;22.50;36.30;;;;;;6146326;28;83416;-52
2023/01/22 06:51:25;;;;;;;8.15;6.07;;;22.50;36.80;;;;;;6144635;28;80376;-51
2023/01/22 06:54:26;;;;;;;8.60;5.97;;;22.50;36.80;;;;;;6133668;28;80199;-51
2023/01/22 06:57:27;;;;;;;8.57;5.90;;;22.50;36.80;;;;;;6129831;28;82522;-53
2023/01/22 07:00:27;;;;;;;7.97;5.82;;;22.50;36.80;;;;;;6129519;28;83317;-50
2023/01/22 07:03:28;;;;;;;9.32;6.32;;;22.40;36.70;;;;;;6139226;28;80307;-51
2023/01/22 07:06:28;;;;;;;7.82;5.55;;;22.40;36.80;;;;;;6133145;28;80605;-52
2023/01/22 07:09:29;;;;;;;7.40;5.57;;;22.40;36.70;;;;;;6130657;28;81880;-52
2023/01/22 07:12:29;;;;;;;9.07;6.30;;;22.40;36.80;;;;;;6126003;28;87366;-51
2023/01/22 07:15:30;;;;;;;7.53;5.60;;;22.30;36.80;;;;;;6128929;28;80864;-51
2023/01/22 07:18:30;;;;;;;8.10;6.00;;;22.30;36.70;;;;;;6110826;28;80955;-52
2023/01/22 07:21:31;;;;;;;9.93;5.90;;;22.30;36.70;;;;;;6129342;28;80407;-53
2023/01/22 07:24:31;;;;;;;9.23;5.85;;;22.30;36.80;;;;;;6130756;28;80887;-50
2023/01/22 07:27:33;;;;;;;7.05;5.40;;;22.30;36.80;;;;;;6130671;28;81793;-52
2023/01/22 07:30:34;;;;;;;6.97;5.47;;;22.30;36.90;;;;;;6130415;28;81202;-53
2023/01/22 07:33:34;;;;;;;7.07;4.95;;;22.20;36.80;;;;;;6127861;28;88237;-51
2023/01/22 07:36:35;;;;;;;7.30;5.25;;;22.20;36.90;;;;;;6117221;28;80797;-50
2023/01/22 07:39:35;;;;;;;7.32;5.35;;;22.30;36.90;;;;;;6117977;28;80663;-51
2023/01/22 07:42:36;;;;;;;8.30;5.47;;;22.20;36.90;;;;;;6120497;28;80987;-49
2023/01/22 07:45:36;;;;;;;6.53;5.25;;;22.20;36.90;;;;;;6114593;28;80350;-50
2023/01/22 07:48:38;;;;;;;6.07;5.15;;;22.20;36.90;;;;;;6123438;28;83334;-52
2023/01/22 07:51:38;;;;;;;7.13;5.32;;;22.20;36.90;;;;;;6117538;28;81229;-50
2023/01/22 07:54:39;;;;;;;6.90;5.30;;;22.20;36.90;;;;;;6118564;28;80946;-52
2023/01/22 07:57:39;;;;;;;6.15;4.90;;;22.20;36.90;;;;;;6113795;28;80661;-49
2023/01/22 08:00:40;;;;;;;7.30;5.30;;;22.20;36.90;;;;;;6116112;28;80877;-50
2023/01/22 08:03:41;;;;;;;7.97;5.93;;;22.20;37.00;;;;;;6112434;28;80392;-52
2023/01/22 08:06:41;;;;;;;7.15;4.90;;;22.20;37.00;;;;;;6117350;28;80224;-62
2023/01/22 08:09:42;;;;;;;6.95;4.90;;;22.20;36.90;;;;;;6118561;28;81388;-62
2023/01/22 08:12:42;;;;;;;8.02;5.90;;;22.20;37.00;;;;;;6117886;28;84652;-62
2023/01/22 08:15:43;;;;;;;6.18;5.28;;;22.20;36.90;;;;;;6111773;28;80674;-62
2023/01/22 08:18:43;;;;;;;7.05;5.30;;;22.20;36.90;;;;;;6119819;28;80541;-62
2023/01/22 08:21:44;;;;;;;6.78;5.38;;;22.20;37.00;;;;;;6115597;28;80774;-63
2023/01/22 08:24:45;;;;;;;7.30;5.13;;;22.10;36.90;;;;;;6119420;28;80278;-63
2023/01/22 08:27:45;;;;;;;5.68;4.60;;;22.20;37.00;;;;;;6120163;28;81075;-63
2023/01/22 08:30:46;;;;;;;8.45;5.80;;;22.20;37.00;;;;;;6109048;28;80788;-63
2023/01/22 08:33:46;;;;;;;8.02;5.65;;;22.20;36.90;;;;;;6123040;28;80382;-63
2023/01/22 08:36:47;;;;;;;8.63;5.53;;;22.20;37.10;;;;;;6129643;28;81046;-66
2023/01/22 08:39:47;;;;;;;6.05;4.85;;;22.30;36.90;;;;;;6138965;28;80631;-66
2023/01/22 08:42:48;;;;;;;6.68;5.22;;;22.30;36.90;;;;;;6130577;28;82652;-51
2023/01/22 08:45:48;;;;;;;6.75;5.20;;;22.30;36.60;;;;;;6139533;28;81544;-53
2023/01/22 08:48:49;;;;;;;6.22;5.28;;;22.30;36.50;;;;;;6136067;28;80749;-54
2023/01/22 08:51:50;;;;;;;5.90;5.07;;;22.40;36.60;;;;;;6139656;28;80968;-54
2023/01/22 08:54:50;;;;;;;6.13;5.40;;;22.40;36.60;;;;;;6136621;28;80567;-51
2023/01/22 08:57:51;;;;;;;6.68;5.43;;;22.40;36.50;;;;;;6133537;28;80448;-53
2023/01/22 09:00:51;;;;;;;6.25;5.05;;;22.40;36.40;;;;;;6131805;28;80957;-53
2023/01/22 09:03:52;;;;;;;6.13;5.00;;;22.50;36.50;;;;;;6143641;28;80373;-69
2023/01/22 09:06:54;;;;;;;7.28;5.68;;;22.50;36.40;;;;;;6116193;28;81245;-58
2023/01/22 09:09:54;;;;;;;6.85;5.72;;;22.60;36.40;;;;;;6121404;28;83391;-57
2023/01/22 09:12:55;;;;;;;8.48;5.55;;;22.60;36.40;;;;;;6117387;28;80576;-58
2023/01/22 09:15:55;;;;;;;6.28;5.38;;;22.60;36.60;;;;;;6113526;28;81775;-58
2023/01/22 09:18:56;;;;;;;6.43;5.50;;;22.70;36.90;;;;;;6120351;28;80430;-58
2023/01/22 09:21:56;;;;;;;8.88;6.22;;;22.70;37.00;;;;;;6121389;28;81648;-60
2023/01/22 09:24:58;;;;;;;7.57;5.57;;;22.70;37.00;;;;;;6129511;28;80268;-57
2023/01/22 09:27:58;;;;;;;7.65;5.88;;;22.80;37.10;;;;;;6130424;28;80349;-56
2023/01/22 09:30:59;;;;;;;6.47;5.18;;;22.80;37.20;;;;;;6131158;28;82236;-61
2023/01/22 09:33:59;;;;;;;7.07;4.93;;;22.80;37.50;;;;;;6137109;28;80217;-56
2023/01/22 09:37:04;;;;;;;7.28;5.80;;;22.80;37.80;;;;;;6149686;28;80944;-55
2023/01/22 09:40:04;;;;;;;11.00;7.25;;;22.90;39.70;;;;;;6135712;28;83233;-57
2023/01/22 09:43:05;;;;;;;11.52;6.32;;;22.90;40.20;;;;;;6132719;28;81351;-55
2023/01/22 09:46:05;;;;;;;9.15;6.18;;;22.90;41.10;;;;;;6139825;28;80497;-58
2023/01/22 09:49:07;;;;;;;9.75;6.07;;;22.90;40.70;;;;;;6129872;28;81710;-58
2023/01/22 09:52:07;;;;;;;7.57;5.80;;;22.90;40.30;;;;;;6136847;28;80792;-58
2023/01/22 09:55:08;;;;;;;11.27;7.22;;;22.90;39.90;;;;;;6135847;28;81421;-56
2023/01/22 09:58:08;;;;;;;10.93;7.15;;;22.90;39.80;;;;;;6123555;28;80386;-57
2023/01/22 10:01:09;;;;;;;8.85;6.80;;;22.90;39.70;;;;;;6124816;28;80647;-58
2023/01/22 10:04:09;;;;;;;8.73;6.20;;;22.90;39.60;;;;;;6121886;28;80831;-57
2023/01/22 10:07:10;;;;;;;11.63;6.47;;;22.90;39.40;;;;;;6116985;28;80378;-55
2023/01/22 10:10:10;;;;;;;8.57;6.65;;;22.90;39.10;;;;;;6119936;28;80981;-57
2023/01/22 10:13:11;;;;;;;11.32;7.25;;;22.80;38.90;;;;;;6121549;28;80428;-57
2023/01/22 10:16:11;;;;;;;9.27;6.90;;;22.90;38.70;;;;;;6119268;28;80387;-63
2023/01/22 10:19:12;;;;;;;9.80;7.55;;;22.80;38.60;;;;;;6125882;28;85150;-63
2023/01/22 10:22:12;;;;;;;10.25;6.88;;;22.80;38.30;;;;;;6133553;28;80346;-67
2023/01/22 10:25:13;;;;;;;11.50;7.28;;;22.80;38.20;;;;;;6133780;28;80264;-65
2023/01/22 10:28:13;;;;;;;8.35;6.80;;;22.70;38.10;;;;;;6125798;28;81143;-61
2023/01/22 10:31:14;;;;;;;11.85;8.23;;;22.70;37.80;;;;;;6134238;28;80579;-62
2023/01/22 10:34:15;;;;;;;10.25;6.90;;;22.70;37.80;;;;;;6117033;28;80541;-61
2023/01/22 10:37:15;;;;;;;11.57;7.80;;;22.70;37.90;;;;;;6126455;28;80605;-61
2023/01/22 10:40:16;;;;;;;10.15;7.68;;;22.60;37.70;;;;;;6126624;28;80483;-61
2023/01/22 10:43:16;;;;;;;10.88;7.63;;;22.60;37.80;;;;;;6134389;28;81152;-60
2023/01/22 10:46:17;;;;;;;9.63;7.38;;;22.60;37.70;;;;;;6138635;28;81139;-61
2023/01/22 10:49:17;;;;;;;9.82;7.63;;;22.60;37.70;;;;;;6138039;28;80861;-62
2023/01/22 10:52:18;;;;;;;10.13;8.00;;;22.60;37.70;;;;;;6137614;28;81264;-61
2023/01/22 10:55:18;;;;;;;9.50;7.35;;;22.50;37.40;;;;;;6128027;28;80612;-62
2023/01/22 10:58:20;;;;;;;11.20;8.00;;;22.50;37.60;;;;;;6129039;28;81659;-61
2023/01/22 11:01:20;;;;;;;11.77;8.60;;;22.50;37.40;;;;;;6151083;28;81151;-61
2023/01/22 11:04:21;;;;;;;10.50;8.32;;;22.40;37.60;;;;;;6124722;28;80962;-61
2023/01/22 11:07:21;;;;;;;11.07;7.97;;;22.40;37.40;;;;;;6128310;28;80766;-61
2023/01/22 11:10:22;;;;;;;10.90;8.27;;;22.40;37.30;;;;;;6139544;28;81018;-60
2023/01/22 11:13:22;;;;;;;13.02;8.82;;;22.40;37.40;;;;;;6132972;28;80314;-60
2023/01/22 11:16:23;;;;;;;11.68;9.80;;;22.40;37.30;;;;;;6122925;28;81599;-60
2023/01/22 11:19:24;;;;;;;12.75;9.25;;;22.30;37.30;;;;;;6134532;28;81037;-61
2023/01/22 11:22:24;;;;;;;12.77;8.77;;;22.30;37.90;;;;;;6138827;28;80527;-61
2023/01/22 11:25:25;;;;;;;11.77;8.13;;;22.30;37.30;;;;;;6132605;28;81212;-61
2023/01/22 11:28:25;;;;;;;12.45;9.25;;;22.30;37.30;;;;;;6131660;28;80481;-59
2023/01/22 11:31:26;;;;;;;13.50;9.30;;;22.30;37.40;;;;;;6128519;28;81635;-56
2023/01/22 11:34:26;;;;;;;11.88;8.77;;;22.30;37.40;;;;;;6133460;28;80295;-55
2023/01/22 11:37:27;;;;;;;12.32;8.95;;;22.30;37.50;;;;;;6131483;28;81245;-58
2023/01/22 11:40:27;;;;;;;14.15;9.55;;;22.30;37.50;;;;;;6132866;28;80769;-55
2023/01/22 11:43:28;;;;;;;14.68;10.02;;;22.30;37.40;;;;;;6131129;28;80449;-55
2023/01/22 11:46:28;;;;;;;15.18;9.50;;;22.30;37.50;;;;;;6124969;28;84297;-52
2023/01/22 11:49:29;;;;;;;13.98;10.05;;;22.30;37.70;;;;;;6133771;28;84033;-53
2023/01/22 11:52:29;;;;;;;13.65;9.60;;;22.30;38.20;;;;;;6151270;28;82873;-54
2023/01/22 11:55:30;;;;;;;13.82;9.15;;;22.30;38.50;;;;;;6144990;28;81758;-57
2023/01/22 11:58:30;;;;;;;12.85;9.32;;;22.20;38.60;;;;;;6131545;28;81475;-54
2023/01/22 12:01:31;;;;;;;14.60;10.05;;;22.20;38.60;;;;;;6147197;28;80192;-53
2023/01/22 12:04:31;;;;;;;14.63;10.40;;;22.20;39.00;;;;;;6139466;28;83414;-54
2023/01/22 12:07:34;;;;;;;14.75;9.65;;;22.20;39.30;;;;;;6125255;28;83217;-54
2023/01/22 12:10:34;;;;;;;16.80;11.50;;;22.30;39.50;;;;;;6125431;28;81844;-57
2023/01/22 12:13:35;;;;;;;13.88;10.02;;;22.30;39.60;;;;;;6127024;28;86558;-55
2023/01/22 12:16:35;;;;;;;13.35;9.32;;;22.30;39.80;;;;;;6114092;28;83560;-54
2023/01/22 12:19:36;;;;;;;14.80;9.60;;;22.40;39.90;;;;;;6128887;28;82890;-55
2023/01/22 12:22:36;;;;;;;16.60;10.43;;;22.40;40.00;;;;;;6132332;28;80324;-56
2023/01/22 12:25:37;;;;;;;14.38;10.70;;;22.50;40.00;;;;;;6141812;28;83123;-56
2023/01/22 12:28:37;;;;;;;16.67;11.50;;;22.50;40.20;;;;;;6123214;28;83143;-54
2023/01/22 12:31:38;;;;;;;15.02;10.93;;;22.60;39.60;;;;;;6117761;28;83968;-52
2023/01/22 12:34:39;;;;;;;15.15;10.77;;;22.60;39.30;;;;;;6124372;28;83237;-55
2023/01/22 12:37:39;;;;;;;16.73;11.05;;;22.60;39.10;;;;;;6132463;28;84910;-54
2023/01/22 12:40:40;;;;;;;15.45;11.13;;;22.60;38.90;;;;;;6127571;28;88823;-58
2023/01/22 12:43:40;;;;;;;15.73;10.95;;;22.60;38.80;;;;;;6133672;28;83132;-54
2023/01/22 12:46:41;;;;;;;16.23;11.70;;;22.60;38.70;;;;;;6129427;28;83362;-55
2023/01/22 12:49:42;;;;;;;19.15;12.25;;;22.70;38.70;;;;;;6128050;28;82954;-53
2023/01/22 12:52:42;;;;;;;16.75;12.18;;;22.70;38.60;;;;;;6127291;28;83101;-55
2023/01/22 12:55:43;;;;;;;18.92;12.57;;;22.70;38.60;;;;;;6120897;28;83437;-54
2023/01/22 12:58:44;;;;;;;16.95;11.65;;;22.70;38.50;;;;;;6124187;28;83193;-54
2023/01/22 13:01:44;;;;;;;18.85;13.07;;;22.70;38.50;;;;;;6127795;28;85080;-60
2023/01/22 13:04:45;;;;;;;17.40;12.45;;;22.70;38.50;;;;;;6127301;28;83508;-59
2023/01/22 13:07:45;;;;;;;18.92;12.50;;;22.70;38.50;;;;;;6125246;28;83894;-60
2023/01/22 13:10:46;;;;;;;19.02;12.77;;;22.70;38.40;;;;;;6129155;28;83239;-61
2023/01/22 13:13:47;;;;;;;22.02;13.95;;;22.60;38.30;;;;;;6130079;28;83979;-61
2023/01/22 13:16:47;;;;;;;20.80;14.02;;;22.60;38.30;;;;;;6112605;28;83492;-61
2023/01/22 13:19:49;;;;;;;21.67;13.38;;;22.60;38.30;;;;;;6124567;28;83114;-55
2023/01/22 13:22:49;;;;;;;18.52;13.30;;;22.60;38.20;;;;;;6136730;28;83916;-53
2023/01/22 13:25:50;;;;;;;19.67;12.75;;;22.60;38.20;;;;;;6126192;28;83299;-52
2023/01/22 13:28:50;;;;;;;19.70;13.70;;;22.50;38.30;;;;;;6117408;28;83164;-52
2023/01/22 13:31:51;;;;;;;19.90;13.73;;;22.50;38.40;;;;;;6126903;28;83703;-53
2023/01/22 13:34:52;;;;;;;24.40;16.35;;;22.50;38.80;;;;;;6123705;28;84301;-54
2023/01/22 13:37:52;;;;;;;27.52;16.73;;;22.50;39.90;;;;;;6114769;28;82995;-51
2023/01/22 13:40:53;;;;;;;24.40;17.00;;;22.60;41.90;;;;;;6136871;28;83262;-50
2023/01/22 13:43:53;;;;;;;25.65;15.90;;;22.60;41.70;;;;;;6131884;28;84267;-53
2023/01/22 13:46:54;;;;;;;20.60;15.25;;;22.60;41.50;;;;;;6127401;28;83194;-53
2023/01/22 13:49:55;;;;;;;22.92;15.02;;;22.50;41.40;;;;;;6134084;28;84320;-52
2023/01/22 13:52:55;;;;;;;20.27;13.95;;;22.50;41.50;;;;;;6119149;28;83134;-55
2023/01/22 13:55:56;;;;;;;23.05;13.75;;;22.50;41.30;;;;;;6124799;28;84056;-53
2023/01/22 13:58:56;;;;;;;22.55;14.57;;;22.50;41.10;;;;;;6122944;28;83594;-57
2023/01/22 14:01:57;;;;;;;19.40;14.48;;;22.50;41.60;;;;;;6124960;28;82802;-50
2023/01/22 14:04:57;;;;;;;22.30;16.40;;;22.50;42.00;;;;;;6119561;28;83695;-53
2023/01/22 14:07:58;;;;;;;26.35;18.73;;;22.60;42.30;;;;;;6125018;28;82871;-51
2023/01/22 14:10:58;;;;;;;27.58;17.98;;;22.60;43.00;;;;;;6125422;28;83617;-55
2023/01/22 14:13:59;;;;;;;27.45;19.05;;;22.60;43.50;;;;;;6124816;28;82843;-52
2023/01/22 14:16:59;;;;;;;25.08;17.83;;;22.60;44.60;;;;;;6110262;28;83196;-51
2023/01/22 14:20:00;;;;;;;24.92;17.80;;;22.60;44.40;;;;;;6139390;28;83423;-54
2023/01/22 14:23:00;;;;;;;26.33;18.85;;;22.50;44.10;;;;;;6126884;28;83263;-56
2023/01/22 14:26:01;;;;;;;23.20;17.13;;;22.60;43.90;;;;;;6126316;28;83436;-54
2023/01/22 14:29:01;;;;;;;25.33;16.30;;;22.50;43.50;;;;;;6131198;28;83054;-54
2023/01/22 14:32:02;;;;;;;22.70;15.85;;;22.50;43.30;;;;;;6127820;28;84198;-51
2023/01/22 14:35:02;;;;;;;22.13;15.82;;;22.50;43.00;;;;;;6137890;28;83244;-53
2023/01/22 14:38:03;;;;;;;24.25;15.50;;;22.50;42.50;;;;;;6122879;28;83286;-55
2023/01/22 14:41:03;;;;;;;22.83;15.10;;;22.50;42.40;;;;;;6125548;28;83115;-69
2023/01/22 14:44:04;;;;;;;21.92;15.52;;;22.50;42.00;;;;;;6126144;28;84027;-68
2023/01/22 14:47:05;;;;;;;28.30;16.27;;;22.50;41.80;;;;;;6125016;28;91061;-68
2023/01/22 14:50:05;;;;;;;24.42;15.45;;;22.50;41.90;;;;;;6125479;28;83874;-70
2023/01/22 14:53:06;;;;;;;26.15;15.82;;;22.50;42.20;;;;;;6123007;28;83425;-57
2023/01/22 14:56:06;;;;;;;27.77;15.85;;;22.50;44.20;;;;;;6119621;28;84140;-59
2023/01/22 14:59:07;;;;;;;27.88;16.50;;;22.50;43.30;;;;;;6125560;28;84326;-59
2023/01/22 15:02:07;;;;;;;29.88;16.42;;;22.40;43.30;;;;;;6123341;28;84289;-59
2023/01/22 15:05:08;;;;;;;25.02;14.98;;;22.40;43.10;;;;;;6126874;28;83546;-57
2023/01/22 15:08:08;;;;;;;26.50;15.25;;;22.40;43.20;;;;;;6116405;28;84659;-56
2023/01/22 15:11:09;;;;;;;31.30;16.73;;;22.40;43.20;;;;;;6124478;28;83653;-57
2023/01/22 15:14:09;;;;;;;29.42;16.65;;;22.40;43.00;;;;;;6129304;28;83037;-57
2023/01/22 15:17:10;;;;;;;26.92;15.40;;;22.40;42.90;;;;;;6112443;28;83383;-58
2023/01/22 15:20:11;;;;;;;28.00;16.05;;;22.40;43.50;;;;;;6141954;28;83409;-56
2023/01/22 15:23:11;;;;;;;28.77;16.60;;;22.40;42.70;;;;;;6138393;28;83577;-64
2023/01/22 15:26:12;;;;;;;30.90;17.73;;;22.40;42.50;;;;;;6129349;28;84947;-65
2023/01/22 15:29:12;;;;;;;55.30;38.20;;;22.40;42.30;;;;;;6124893;28;84166;-58
2023/01/22 15:32:13;;;;;;;54.35;34.95;;;22.40;42.50;;;;;;6124901;28;83012;-58
2023/01/22 15:35:13;;;;;;;44.72;31.92;;;22.40;42.30;;;;;;6129237;28;83559;-57
2023/01/22 15:38:14;;;;;;;40.03;25.85;;;22.40;42.30;;;;;;6150082;28;84224;-56